Terminal Aerodrome Forecast
Issued by NWS

Home | Current Version | Previous Version | Text Only | Print | Product List | Glossary Off
Versions: 1 2 3 4 5 6 7 8 9 10 11 12 13 14 15 16 17 18 19 20 21 22

698
FTUS43 KBIS 230537
TAFMOT
TAF
KMOT 230537Z 2306/2406 13009KT P6SM FEW250
     FM230900 28009KT P6SM VCFG BKN040
     FM231500 30017G24KT P6SM VCSH SCT050 BKN150
     FM232000 27017G24KT P6SM SCT120
     FM240200 25011KT P6SM SCT050=

USA.gov is the U.S. government's official web portal to all federal, state and local government web resources and services.